ASN logo
ASN Wikibase Occurrence # 204563
Last updated: 22 February 2018
This information is added by users of ASN. Neither ASN nor the Flight Safety Foundation are responsible for the completeness or correctness of this information. If you feel this information is incomplete or incorrect, you can submit corrected information.

Date:16-JAN-2018
Time:ca 07:40 LT
Type:Silhouette image of generic E55P model; specific model in this crash may look slightly different
Embraer EMB-505 Phenom 300
Owner/operator:Flight Options
Registration: N354FX
C/n / msn: 50500135
Fatalities:Fatalities: 0 / Occupants: 6
Other fatalities:0
Airplane damage: Minor
Location:Bend Municipal Airport, OR (KBDN) -   United States of America
Phase: Landing
Nature:Private
Departure airport:Oakland International Airport, CA (OAK/KOAK)
Destination airport:Bend Municipal Airport, OR (KBDN)
Narrative:
A Phenom 300 corporate jet with six people aboard suffered a runway excursion after landing on runway 34 at Bend Municipal Airport, Oregon, USA.
The aircraft came to rest on uneven terrain past the end of the runway.
Overnight rain showers and low temperatures may have played a role in the incident.

Weather about the time of the incident (1540Z):
KBDN 161555Z AUTO 00000KT 10SM CLR 00/M00 A3019 RMK AO2
> KBDN 161535Z AUTO 00000KT 2SM BR CLR 00/00 A3019 RMK AO2
KBDN 161515Z AUTO 00000KT 1SM BR SCT001 00/00 A3019 RMK AO2

Sources:

http://www.ktvz.com/news/icy-roads-spark-numerous-crashes-around-high-desert/686632955
http://www.bendbulletin.com/localstate/5924082-151/private-jet-skids-off-runway-in-bend
http://www.ktvz.com/news/icy-roads-spark-numerous-crashes-around-high-desert/686632955
________________________
https://flightaware.com/live/flight/N354FX
http://registry.faa.gov/aircraftinquiry/NNum_Results.aspx?NNumbertxt=354FX
http://www.airliners.net/photo/Flexjet/Embraer-EMB-505-Phenom/4039559


Images:



KBDN runway 16 departure around 1115 local.

Revision history:

Date/timeContributorUpdates
16-Jan-2018 20:31 harro Added
16-Jan-2018 20:33 harro Updated [Source]
16-Jan-2018 20:41 Geno Updated [Source]
16-Jan-2018 21:23 Iceman 29 Updated [Source, Embed code, Damage, Narrative]
16-Jan-2018 21:26 Iceman 29 Updated [Nature, Embed code, Photo, ]
17-Jan-2018 06:43 Anon Updated [Photo, ]

Corrections or additions? ... Edit this accident description